Time;durP1;ratioP1;P1;durP2;ratioP2;P2;SDS_P1;SDS_P2;PMS_P1;PMS_P2;Temp;Humidity;BMP_temperature;BMP_pressure;BME280_temperature;BME280_humidity;BME280_pressure;Samples;Min_cycle;Max_cycle;Signal;HPM_P1;HPM_P2
2023/12/18 00:01:25;;;;;;;21.00;8.23;;;;;;;8.65;61.83;103285.44;4771099;29;119639;-71
2023/12/18 00:03:52;;;;;;;13.77;8.27;;;;;;;8.67;61.81;103283.69;4768896;29;123716;-71
2023/12/18 00:06:20;;;;;;;16.38;8.27;;;;;;;8.71;61.89;103280.16;4776276;29;124502;-71
2023/12/18 00:08:47;;;;;;;16.98;8.68;;;;;;;8.75;61.63;103274.00;4773431;29;118824;-71
2023/12/18 00:11:14;;;;;;;17.20;8.27;;;;;;;8.79;61.96;103271.38;4775492;29;120198;-71
2023/12/18 00:13:42;;;;;;;17.70;8.23;;;;;;;8.80;61.89;103268.75;4773706;29;124577;-71
2023/12/18 00:16:09;;;;;;;16.10;8.80;;;;;;;8.84;61.74;103261.72;4759193;29;123864;-71
2023/12/18 00:18:36;;;;;;;14.75;8.18;;;;;;;8.85;61.68;103260.81;4767405;29;120031;-71
2023/12/18 00:21:03;;;;;;;15.57;9.23;;;;;;;8.88;61.73;103260.81;4767774;29;118716;-71
2023/12/18 00:23:31;;;;;;;18.08;8.93;;;;;;;8.90;61.97;103249.38;4758884;29;123756;-71
2023/12/18 00:25:58;;;;;;;16.40;8.70;;;;;;;8.94;61.84;103239.69;4760047;29;124119;-71
2023/12/18 00:28:25;;;;;;;16.30;8.55;;;;;;;8.96;61.74;103243.19;4760073;29;119596;-71
2023/12/18 00:30:52;;;;;;;17.77;9.32;;;;;;;8.98;62.05;103236.16;4760041;29;118902;-71
2023/12/18 00:33:19;;;;;;;15.48;9.23;;;;;;;8.99;62.09;103227.34;4760571;29;124283;-71
2023/12/18 00:35:47;;;;;;;23.33;10.05;;;;;;;9.01;61.96;103220.31;4767734;29;124321;-71
2023/12/18 00:38:14;;;;;;;20.00;10.13;;;;;;;9.02;62.17;103222.03;4751906;29;119085;-71
2023/12/18 00:40:41;;;;;;;18.40;9.90;;;;;;;9.05;61.98;103222.06;4776487;29;119918;-71
2023/12/18 00:43:08;;;;;;;21.25;10.57;;;;;;;9.09;62.10;103218.53;4775697;29;124262;-71
2023/12/18 00:45:35;;;;;;;21.48;10.10;;;;;;;9.11;62.20;103218.53;4776929;29;123972;-70
2023/12/18 00:48:03;;;;;;;19.95;9.40;;;;;;;9.12;61.97;103210.59;4757309;29;119468;-71
2023/12/18 00:50:30;;;;;;;23.55;9.88;;;;;;;9.14;62.31;103216.78;4748154;29;118891;-71
2023/12/18 00:52:58;;;;;;;22.30;10.10;;;;;;;9.17;62.25;103221.16;4749239;29;124385;-71
2023/12/18 00:55:25;;;;;;;17.67;9.32;;;;;;;9.20;62.41;103220.28;4760057;29;123825;-71
2023/12/18 00:57:52;;;;;;;20.42;9.13;;;;;;;9.22;62.21;103213.25;4748821;29;119090;-71
2023/12/18 01:00:21;;;;;;;20.58;9.30;;;;;;;9.23;62.26;103209.69;4765680;29;118683;-71
2023/12/18 01:02:48;;;;;;;20.65;9.90;;;;;;;9.24;62.30;103207.06;4772426;29;123626;-71
2023/12/18 01:05:15;;;;;;;19.08;9.38;;;;;;;9.25;61.99;103207.94;4752937;29;123665;-71
2023/12/18 01:07:43;;;;;;;17.83;9.38;;;;;;;9.25;62.25;103208.84;4747958;29;119344;-71
2023/12/18 01:10:10;;;;;;;19.23;9.52;;;;;;;9.27;61.79;103212.34;4768172;29;119655;-71
2023/12/18 01:12:37;;;;;;;19.48;10.07;;;;;;;9.28;61.86;103208.81;4768208;29;124054;-71
2023/12/18 01:15:05;;;;;;;22.02;9.55;;;;;;;9.28;62.14;103216.75;4773827;29;124613;-71
2023/12/18 01:17:32;;;;;;;22.80;9.75;;;;;;;9.29;61.96;103209.72;4760869;29;119048;-71
2023/12/18 01:20:06;;;;;;;22.45;10.52;;;;;;;9.28;62.18;103213.22;4777441;29;119534;-71
2023/12/18 01:22:33;;;;;;;24.73;10.05;;;;;;;9.30;62.09;103211.47;4747925;29;124765;-71
2023/12/18 01:25:02;;;;;;;18.10;10.00;;;;;;;9.31;61.96;103213.22;4746889;29;122753;-71
2023/12/18 01:27:30;;;;;;;18.95;10.15;;;;;;;9.33;62.12;103211.47;4775356;29;121163;-71
2023/12/18 01:29:57;;;;;;;18.60;9.55;;;;;;;9.34;61.99;103207.91;4754134;29;120099;-71
2023/12/18 01:32:24;;;;;;;23.48;10.55;;;;;;;9.34;62.07;103213.22;4775544;29;123780;-71
2023/12/18 01:34:51;;;;;;;21.02;10.18;;;;;;;9.35;62.20;103204.41;4749232;29;123866;-71
2023/12/18 01:37:18;;;;;;;18.17;9.75;;;;;;;9.36;62.36;103211.44;4771400;29;119260;-71
2023/12/18 01:39:45;;;;;;;20.08;10.25;;;;;;;9.37;62.22;103207.94;4745109;29;118479;-71
2023/12/18 01:42:12;;;;;;;23.40;10.57;;;;;;;9.37;62.04;103197.34;4767258;29;124610;-71
2023/12/18 01:44:40;;;;;;;20.08;10.73;;;;;;;9.38;62.25;103203.50;4774201;29;123967;-71
2023/12/18 01:47:07;;;;;;;21.70;10.50;;;;;;;9.40;62.04;103210.56;4759601;29;118385;-71
2023/12/18 01:49:35;;;;;;;21.80;10.93;;;;;;;9.41;62.27;103208.81;4752922;29;117965;-71
2023/12/18 01:52:04;;;;;;;22.60;10.88;;;;;;;9.42;62.32;103215.84;4765466;29;123815;-71
2023/12/18 01:54:31;;;;;;;20.73;10.57;;;;;;;9.43;62.04;103223.78;4745799;29;124448;-71
2023/12/18 01:57:01;;;;;;;23.10;10.57;;;;;;;9.43;62.20;103213.19;4761548;29;119271;-71
2023/12/18 01:59:30;;;;;;;21.88;10.75;;;;;;;9.44;62.21;103208.81;4750550;29;118474;-71
2023/12/18 02:01:58;;;;;;;21.50;11.60;;;;;;;9.47;62.35;103206.13;4776906;29;124190;-71
2023/12/18 02:04:27;;;;;;;19.45;10.32;;;;;;;9.47;62.54;103199.06;4762744;29;123193;-71
2023/12/18 02:06:54;;;;;;;21.80;10.82;;;;;;;9.48;62.39;103195.56;4775488;29;119490;-71
2023/12/18 02:09:22;;;;;;;21.58;11.00;;;;;;;9.51;62.36;103189.38;4763410;29;118573;-71
2023/12/18 02:11:49;;;;;;;18.00;10.63;;;;;;;9.53;62.33;103199.09;4778386;29;123715;-71
2023/12/18 02:14:16;;;;;;;21.60;11.65;;;;;;;9.54;62.24;103190.25;4778763;29;123967;-71
2023/12/18 02:16:43;;;;;;;22.75;10.73;;;;;;;9.54;62.27;103179.66;4778464;29;120585;-71
2023/12/18 02:19:27;;;;;;;27.77;11.45;;;;;;;9.57;62.52;103188.47;4750567;29;120389;-71
2023/12/18 02:21:55;;;;;;;25.27;11.05;;;;;;;9.58;62.71;103182.31;4761961;29;123959;-71
2023/12/18 02:24:23;;;;;;;22.67;11.07;;;;;;;9.59;62.52;103181.41;4778444;29;122879;-71
2023/12/18 02:26:51;;;;;;;21.58;11.48;;;;;;;9.59;62.58;103176.13;4762445;29;119703;-71
2023/12/18 02:29:18;;;;;;;23.98;11.70;;;;;;;9.60;62.46;103172.59;4779312;29;118855;-71
2023/12/18 02:31:45;;;;;;;23.67;11.45;;;;;;;9.61;62.74;103174.38;4766903;29;123663;-71
2023/12/18 02:34:12;;;;;;;27.85;11.73;;;;;;;9.62;62.44;103174.34;4780558;29;124424;-71
2023/12/18 02:36:39;;;;;;;23.05;12.10;;;;;;;9.65;62.56;103177.00;4779350;29;118304;-70
2023/12/18 02:39:07;;;;;;;22.55;10.85;;;;;;;9.66;62.58;103173.47;4783533;29;119979;-71
2023/12/18 02:41:34;;;;;;;22.83;12.07;;;;;;;9.68;62.69;103165.50;4780951;29;124469;-71
2023/12/18 02:44:01;;;;;;;23.17;11.50;;;;;;;9.70;62.81;103169.00;4777262;29;124654;-70
2023/12/18 02:46:28;;;;;;;22.77;11.65;;;;;;;9.72;62.65;103169.91;4762053;29;118511;-71
2023/12/18 02:48:55;;;;;;;24.65;11.98;;;;;;;9.74;62.72;103176.09;4771812;29;118553;-71
2023/12/18 02:51:23;;;;;;;20.30;10.90;;;;;;;9.76;62.73;103166.38;4782579;29;124126;-71
2023/12/18 02:53:50;;;;;;;21.38;11.32;;;;;;;9.76;62.71;103174.31;4772202;29;123249;-70
2023/12/18 02:56:17;;;;;;;21.35;10.98;;;;;;;9.76;62.56;103169.00;4776272;29;119479;-71
2023/12/18 02:58:44;;;;;;;22.55;10.98;;;;;;;9.77;62.50;103170.75;4779864;29;118867;-71
2023/12/18 03:01:11;;;;;;;23.77;11.82;;;;;;;9.75;62.75;103172.53;4764549;29;124014;-71
2023/12/18 03:03:38;;;;;;;20.38;11.18;;;;;;;9.74;62.51;103170.78;4757049;29;123188;-71
2023/12/18 03:06:06;;;;;;;20.85;10.95;;;;;;;9.72;62.69;103173.44;4762879;29;120636;-70
2023/12/18 03:08:34;;;;;;;21.88;11.02;;;;;;;9.73;62.26;103174.31;4766854;29;119916;-71
2023/12/18 03:11:02;;;;;;;22.48;11.35;;;;;;;9.70;62.59;103163.72;4755531;29;123585;-71
2023/12/18 03:13:29;;;;;;;22.95;11.45;;;;;;;9.69;62.42;103167.28;4760608;29;124078;-71
2023/12/18 03:15:57;;;;;;;23.50;11.10;;;;;;;9.69;62.56;103167.28;4760886;29;120049;-71
2023/12/18 03:18:24;;;;;;;20.23;11.48;;;;;;;9.68;62.48;103160.22;4759810;29;119274;-71
2023/12/18 03:20:51;;;;;;;25.83;11.52;;;;;;;9.69;62.48;103156.69;4744545;29;123605;-71
2023/12/18 03:23:18;;;;;;;23.40;11.63;;;;;;;9.68;62.64;103155.81;4761245;29;123679;-71
2023/12/18 03:25:45;;;;;;;23.02;11.07;;;;;;;9.68;62.69;103160.22;4765633;29;119141;-71
2023/12/18 03:28:13;;;;;;;24.42;12.07;;;;;;;9.68;62.56;103160.22;4767522;29;119680;-71
2023/12/18 03:30:40;;;;;;;20.90;11.13;;;;;;;9.68;62.63;103165.50;4755852;29;124516;-71
2023/12/18 03:33:08;;;;;;;23.38;12.18;;;;;;;9.68;62.53;103165.50;4775643;29;122978;-71
2023/12/18 03:35:35;;;;;;;25.73;11.32;;;;;;;9.69;62.65;103161.97;4761919;29;118970;-71
2023/12/18 03:38:02;;;;;;;19.92;10.52;;;;;;;9.69;62.50;103156.69;4777541;29;118688;-71
2023/12/18 03:40:29;;;;;;;19.50;10.98;;;;;;;9.70;62.64;103158.44;4774368;29;124109;-71
2023/12/18 03:42:56;;;;;;;21.98;11.32;;;;;;;9.68;62.59;103149.63;4772972;29;123591;-71
2023/12/18 03:45:24;;;;;;;22.90;10.88;;;;;;;9.68;62.77;103144.31;4777301;29;120787;-71
2023/12/18 03:47:51;;;;;;;22.80;11.55;;;;;;;9.69;62.56;103154.03;4763390;29;119280;-71
2023/12/18 03:50:18;;;;;;;22.88;11.65;;;;;;;9.69;62.72;103161.97;4751006;29;123947;-71
2023/12/18 03:52:45;;;;;;;21.38;11.18;;;;;;;9.69;62.67;103161.97;4747489;29;124021;-71
2023/12/18 03:55:13;;;;;;;24.00;11.35;;;;;;;9.70;63.12;103153.13;4759687;29;120778;-70
2023/12/18 03:57:40;;;;;;;20.92;11.02;;;;;;;9.69;62.74;103161.97;4760066;29;120771;-71
2023/12/18 04:00:08;;;;;;;23.92;11.48;;;;;;;9.69;62.57;103161.97;4759469;29;124459;-71
2023/12/18 04:02:41;;;;;;;20.33;11.43;;;;;;;9.68;62.75;103160.22;4758900;29;124271;-71
2023/12/18 04:05:09;;;;;;;25.13;11.65;;;;;;;9.69;62.90;103159.34;4760637;29;119007;-71
2023/12/18 04:07:36;;;;;;;24.15;12.38;;;;;;;9.69;62.90;103161.97;4763715;29;119281;-71
2023/12/18 04:10:03;;;;;;;23.95;11.20;;;;;;;9.69;62.95;103162.84;4766201;29;124118;-71
2023/12/18 04:12:30;;;;;;;23.05;11.38;;;;;;;9.70;62.64;103163.72;4762821;29;122970;-71
2023/12/18 04:14:57;;;;;;;25.42;11.93;;;;;;;9.70;62.89;103158.44;4764577;29;119137;-71
2023/12/18 04:17:25;;;;;;;27.10;12.55;;;;;;;9.72;62.91;103156.69;4771134;29;118947;-71
2023/12/18 04:19:52;;;;;;;23.45;12.48;;;;;;;9.72;62.75;103154.03;4762003;29;123804;-71
2023/12/18 04:22:19;;;;;;;24.67;12.27;;;;;;;9.73;63.02;103153.13;4766690;29;123974;-71
2023/12/18 04:24:46;;;;;;;25.92;13.18;;;;;;;9.71;62.97;103154.91;4752480;29;118426;-71
2023/12/18 04:27:15;;;;;;;25.38;11.75;;;;;;;9.71;62.94;103149.63;4773988;29;120576;-71
2023/12/18 04:29:42;;;;;;;27.48;11.75;;;;;;;9.71;62.81;103161.06;4763087;29;124725;-71
2023/12/18 04:32:09;;;;;;;28.90;13.52;;;;;;;9.71;62.88;103160.22;4766368;29;123847;-71
2023/12/18 04:34:36;;;;;;;27.42;12.93;;;;;;;9.71;63.19;103154.91;4748652;29;119337;-71
2023/12/18 04:37:03;;;;;;;27.95;12.95;;;;;;;9.70;62.89;103142.56;4768079;29;118909;-71
2023/12/18 04:39:35;;;;;;;26.67;13.60;;;;;;;9.71;63.12;103144.31;4771561;29;124492;-71
2023/12/18 04:42:02;;;;;;;26.67;13.45;;;;;;;9.71;62.94;103141.69;4768288;29;123711;-71
2023/12/18 04:44:29;;;;;;;24.92;13.75;;;;;;;9.71;63.15;103149.63;4771978;29;120815;-71
2023/12/18 04:46:57;;;;;;;24.80;13.18;;;;;;;9.72;63.05;103138.16;4769314;29;120741;-71
2023/12/18 04:49:24;;;;;;;27.63;13.38;;;;;;;9.73;63.33;103145.19;4764158;29;124034;-71
2023/12/18 04:51:51;;;;;;;30.00;13.35;;;;;;;9.72;63.08;103135.53;4769171;29;123867;-71
2023/12/18 04:54:19;;;;;;;25.73;13.35;;;;;;;9.74;63.10;103136.38;4769110;29;118338;-71
2023/12/18 04:56:46;;;;;;;25.23;13.25;;;;;;;9.73;63.03;103131.97;4764478;29;119198;-71
2023/12/18 04:59:13;;;;;;;27.98;13.85;;;;;;;9.73;63.15;103131.97;4765577;29;125266;-71
2023/12/18 05:01:41;;;;;;;31.85;13.85;;;;;;;9.74;63.09;103133.75;4763371;29;124207;-71
2023/12/18 05:04:08;;;;;;;31.55;14.27;;;;;;;9.75;63.20;103132.84;4768852;29;119999;-71
2023/12/18 05:06:35;;;;;;;28.92;14.15;;;;;;;9.76;63.23;103137.25;4772812;29;118990;-71
2023/12/18 05:09:03;;;;;;;31.83;13.52;;;;;;;9.76;63.05;103137.25;4767870;29;124341;-71
2023/12/18 05:11:30;;;;;;;27.45;13.27;;;;;;;9.76;63.29;103147.84;4760835;29;124858;-71
2023/12/18 05:13:57;;;;;;;29.83;13.93;;;;;;;9.76;63.17;103145.19;4760707;29;119899;-71
2023/12/18 05:16:24;;;;;;;30.50;13.40;;;;;;;9.77;63.33;103141.66;4760631;29;118411;-71
2023/12/18 05:18:53;;;;;;;25.48;12.27;;;;;;;9.75;63.23;103140.78;4759849;29;123033;-71
2023/12/18 05:21:20;;;;;;;28.77;13.07;;;;;;;9.75;63.16;103135.47;4760221;29;124492;-70
2023/12/18 05:23:49;;;;;;;28.80;13.80;;;;;;;9.76;63.00;103134.63;4769135;29;119311;-71
2023/12/18 05:26:16;;;;;;;24.23;12.55;;;;;;;9.77;63.28;103128.41;4754922;29;118391;-71
2023/12/18 05:28:44;;;;;;;27.52;12.20;;;;;;;9.75;63.08;103124.91;4772319;29;123686;-71
2023/12/18 05:31:11;;;;;;;26.52;13.18;;;;;;;9.74;63.25;103129.31;4762526;29;124483;-71
2023/12/18 05:33:39;;;;;;;26.13;13.18;;;;;;;9.74;63.42;103133.75;4772059;29;120632;-71
2023/12/18 05:36:07;;;;;;;31.10;13.00;;;;;;;9.73;63.17;103131.97;4771708;29;120344;-71
2023/12/18 05:38:34;;;;;;;31.23;13.48;;;;;;;9.73;63.21;103129.31;4770712;29;123207;-71
2023/12/18 05:41:01;;;;;;;32.55;14.27;;;;;;;9.73;63.17;103134.63;4774171;29;123992;-71
2023/12/18 05:43:28;;;;;;;32.58;13.35;;;;;;;9.73;63.26;103137.25;4759002;29;119012;-70
2023/12/18 05:45:56;;;;;;;27.30;13.65;;;;;;;9.72;63.33;103146.09;4774961;29;118802;-71
2023/12/18 05:48:23;;;;;;;29.63;13.65;;;;;;;9.73;63.42;103137.25;4769703;29;123907;-71
2023/12/18 05:50:50;;;;;;;28.55;13.07;;;;;;;9.74;63.24;103144.31;4767943;29;123699;-71
2023/12/18 05:53:17;;;;;;;32.45;13.98;;;;;;;9.74;63.38;103150.50;4754698;29;119704;-71
2023/12/18 05:55:45;;;;;;;27.20;13.48;;;;;;;9.73;63.36;103147.84;4775886;29;119727;-71
2023/12/18 05:58:12;;;;;;;27.00;12.75;;;;;;;9.73;63.39;103142.56;4771852;29;123217;-71
2023/12/18 06:00:39;;;;;;;29.92;13.63;;;;;;;9.73;63.28;103137.25;4770510;29;124722;-71
2023/12/18 06:03:07;;;;;;;32.33;13.30;;;;;;;9.72;63.43;103140.81;4774625;29;119985;-71
2023/12/18 06:05:34;;;;;;;25.73;12.63;;;;;;;9.72;63.47;103132.88;4775849;29;119195;-71
2023/12/18 06:08:01;;;;;;;29.15;13.40;;;;;;;9.71;63.39;103131.09;4771270;29;124361;-71
2023/12/18 06:10:28;;;;;;;31.85;12.15;;;;;;;9.70;63.32;103126.69;4772030;29;123421;-71
2023/12/18 06:12:55;;;;;;;24.20;7.82;;;;;;;9.68;63.15;103133.75;4772711;29;119452;-71
2023/12/18 06:15:23;;;;;;;26.58;11.95;;;;;;;9.69;63.28;103132.88;4760822;29;118752;-71
2023/12/18 06:17:50;;;;;;;29.73;13.38;;;;;;;9.69;63.36;103124.94;4776717;29;123917;-71
2023/12/18 06:20:17;;;;;;;32.65;14.35;;;;;;;9.69;63.59;103130.22;4773646;29;124296;-71
2023/12/18 06:22:44;;;;;;;29.38;12.95;;;;;;;9.68;63.35;103128.44;4772946;29;120906;-71
2023/12/18 06:25:11;;;;;;;24.00;12.88;;;;;;;9.68;63.50;103133.75;4761105;29;119534;-71
2023/12/18 06:27:39;;;;;;;25.10;12.13;;;;;;;9.67;63.52;103142.59;4775919;29;124249;-71
2023/12/18 06:30:07;;;;;;;26.92;12.32;;;;;;;9.66;63.52;103141.72;4755964;29;123647;-71
2023/12/18 06:32:34;;;;;;;28.23;12.65;;;;;;;9.66;63.55;103143.47;4756668;29;120533;-71
2023/12/18 06:35:01;;;;;;;36.72;13.27;;;;;;;9.64;63.51;103137.31;4749033;29;118675;-71
2023/12/18 06:37:29;;;;;;;31.80;13.85;;;;;;;9.64;63.39;103139.94;4752868;29;123045;-71
2023/12/18 06:39:57;;;;;;;33.75;13.80;;;;;;;9.62;63.34;103144.38;4760905;29;123209;-71
2023/12/18 06:42:24;;;;;;;29.00;14.13;;;;;;;9.58;63.44;103132.91;4760949;29;118945;-71
2023/12/18 06:44:51;;;;;;;29.77;13.32;;;;;;;9.58;63.44;103138.19;4759583;29;117874;-71
2023/12/18 06:47:19;;;;;;;28.30;14.10;;;;;;;9.57;63.38;103128.53;4744652;29;122808;-71
2023/12/18 06:49:46;;;;;;;26.75;12.82;;;;;;;9.58;63.37;103132.03;4763979;29;123690;-71
2023/12/18 06:52:14;;;;;;;27.98;12.43;;;;;;;9.57;63.49;103124.97;4769382;29;119372;-71
2023/12/18 06:54:42;;;;;;;32.20;13.77;;;;;;;9.57;63.63;103135.56;4748347;29;117990;-71
2023/12/18 06:57:11;;;;;;;28.02;12.93;;;;;;;9.58;63.59;103129.41;4760289;29;123713;-71
2023/12/18 06:59:39;;;;;;;30.23;13.95;;;;;;;9.57;63.42;103124.97;4758631;29;124107;-71
2023/12/18 07:02:06;;;;;;;33.20;14.07;;;;;;;9.55;63.47;103128.53;4758973;29;119397;-71
2023/12/18 07:04:34;;;;;;;28.65;13.25;;;;;;;9.54;63.56;103125.88;4785650;29;118635;-71
2023/12/18 07:07:01;;;;;;;23.33;10.10;;;;;;;9.52;63.76;103128.53;4774141;29;123835;-71
2023/12/18 07:09:28;;;;;;;27.75;10.65;;;;;;;9.53;63.71;103135.59;4767710;29;125710;-71
2023/12/18 07:11:55;;;;;;;28.23;9.70;;;;;;;9.54;63.59;103137.34;4755543;29;120812;-71
2023/12/18 07:14:22;;;;;;;27.42;10.82;;;;;;;9.53;63.48;103130.31;4775526;29;119787;-71
2023/12/18 07:16:49;;;;;;;22.85;9.70;;;;;;;9.55;63.50;103123.22;4777314;29;123926;-71
2023/12/18 07:19:17;;;;;;;25.15;9.60;;;;;;;9.55;63.70;103131.16;4776222;29;123276;-71
2023/12/18 07:21:44;;;;;;;23.30;9.55;;;;;;;9.55;63.55;103128.53;4777362;29;118308;-70
2023/12/18 07:24:11;;;;;;;28.20;10.57;;;;;;;9.55;63.67;103132.94;4770238;29;118068;-71
2023/12/18 07:26:39;;;;;;;23.50;10.02;;;;;;;9.55;63.78;103139.09;4770469;29;123291;-71
2023/12/18 07:29:06;;;;;;;26.02;8.57;;;;;;;9.58;63.63;103139.97;4785031;29;125344;-70
2023/12/18 07:31:33;;;;;;;22.55;8.85;;;;;;;9.58;63.52;103137.34;4770672;29;118665;-71
2023/12/18 07:34:01;;;;;;;17.83;8.45;;;;;;;9.61;63.58;103147.91;4771695;29;119227;-71
2023/12/18 07:36:28;;;;;;;19.25;7.80;;;;;;;9.60;63.59;103140.84;4785787;29;123290;-71
2023/12/18 07:38:55;;;;;;;30.00;8.75;;;;;;;9.60;63.75;103136.44;4783177;29;123845;-71
2023/12/18 07:41:22;;;;;;;19.75;8.50;;;;;;;9.61;63.83;103142.63;4766323;29;118197;-70
2023/12/18 07:43:50;;;;;;;25.52;8.48;;;;;;;9.61;63.70;103142.63;4770776;29;118980;-71
2023/12/18 07:46:20;;;;;;;19.08;8.23;;;;;;;9.63;63.54;103138.19;4777899;29;125391;-71
2023/12/18 07:48:48;;;;;;;22.88;8.02;;;;;;;9.63;63.70;103131.13;4795099;29;125844;-71
2023/12/18 07:51:16;;;;;;;23.02;9.00;;;;;;;9.64;63.32;103126.72;4773813;29;119231;-71
2023/12/18 07:53:44;;;;;;;24.73;8.70;;;;;;;9.65;63.71;103133.78;4774731;29;119289;-71
2023/12/18 07:56:11;;;;;;;21.23;8.52;;;;;;;9.65;63.49;103139.06;4746767;29;124056;-71
2023/12/18 07:58:40;;;;;;;20.23;8.30;;;;;;;9.65;63.49;103139.06;4760166;29;123932;-71
2023/12/18 08:01:07;;;;;;;21.92;8.45;;;;;;;9.66;63.44;103146.09;4757432;29;118747;-71
2023/12/18 08:03:35;;;;;;;18.55;8.15;;;;;;;9.64;63.74;103129.34;4758562;29;119242;-71
2023/12/18 08:06:02;;;;;;;18.73;8.80;;;;;;;9.64;63.43;103126.72;4728749;29;123766;-71
2023/12/18 08:08:29;;;;;;;23.58;8.82;;;;;;;9.65;63.68;103123.19;4769862;29;123882;-71
2023/12/18 08:10:56;;;;;;;23.08;8.50;;;;;;;9.64;63.47;103121.41;4762023;29;119218;-71
2023/12/18 08:13:23;;;;;;;22.30;9.05;;;;;;;9.65;63.53;103125.84;4766822;29;119361;-71
2023/12/18 08:15:51;;;;;;;22.25;8.73;;;;;;;9.64;63.55;103110.84;4732928;29;123724;-71
2023/12/18 08:18:18;;;;;;;24.65;8.95;;;;;;;9.64;63.53;103116.13;4761782;29;123541;-71
2023/12/18 08:20:45;;;;;;;26.40;9.48;;;;;;;9.64;63.78;103111.72;4770737;29;120137;-71
2023/12/18 08:23:12;;;;;;;23.70;9.15;;;;;;;9.65;63.65;103109.97;4766119;29;119216;-71
2023/12/18 08:25:39;;;;;;;26.83;8.85;;;;;;;9.66;63.74;103109.06;4768352;29;124115;-71
2023/12/18 08:28:06;;;;;;;22.20;9.13;;;;;;;9.66;63.50;103103.78;4770493;29;124578;-71
2023/12/18 08:30:34;;;;;;;28.83;9.30;;;;;;;9.68;63.64;103102.91;4766797;29;119901;-71
2023/12/18 08:33:01;;;;;;;26.15;9.23;;;;;;;9.72;63.56;103101.13;4767000;29;119354;-71
2023/12/18 08:35:28;;;;;;;24.35;9.10;;;;;;;9.72;63.95;103109.06;4742856;29;123864;-71
2023/12/18 08:37:56;;;;;;;25.05;9.38;;;;;;;9.73;63.67;103110.81;4757869;29;123943;-71
2023/12/18 08:40:23;;;;;;;28.35;8.75;;;;;;;9.74;63.79;103117.88;4759494;29;119589;-71
2023/12/18 08:42:50;;;;;;;26.17;9.35;;;;;;;9.75;63.59;103119.59;4758524;29;118914;-71
2023/12/18 08:45:17;;;;;;;23.38;9.10;;;;;;;9.77;63.89;103107.25;4742960;29;126318;-70
2023/12/18 08:47:44;;;;;;;26.42;9.07;;;;;;;9.78;63.81;103103.72;4765301;29;123692;-71
2023/12/18 08:50:11;;;;;;;21.52;9.25;;;;;;;9.81;63.82;103101.03;4757950;29;120158;-71
2023/12/18 08:52:39;;;;;;;22.45;9.60;;;;;;;9.82;63.82;103092.22;4758494;29;120340;-71
2023/12/18 08:55:06;;;;;;;23.30;9.27;;;;;;;9.83;63.79;103091.34;4760434;29;124617;-71
2023/12/18 08:57:33;;;;;;;28.00;9.55;;;;;;;9.85;63.65;103089.56;4748248;29;123707;-71
2023/12/18 09:00:01;;;;;;;24.63;9.20;;;;;;;9.85;63.82;103089.56;4758180;29;120197;-71
2023/12/18 09:02:28;;;;;;;23.67;8.77;;;;;;;9.87;63.86;103087.78;4757616;29;118906;-71
2023/12/18 09:04:55;;;;;;;23.38;8.77;;;;;;;9.88;63.79;103089.53;4776896;29;124348;-71
2023/12/18 09:07:23;;;;;;;25.17;8.73;;;;;;;9.90;63.84;103087.75;4775915;29;123929;-71
2023/12/18 09:09:50;;;;;;;26.60;8.70;;;;;;;9.93;63.64;103095.69;4776527;29;119690;-71
2023/12/18 09:12:17;;;;;;;23.55;9.07;;;;;;;9.96;63.71;103091.25;4775235;29;119585;-71
2023/12/18 09:14:44;;;;;;;22.55;9.35;;;;;;;9.99;63.87;103096.56;4775535;29;123725;-71
2023/12/18 09:17:12;;;;;;;24.30;9.38;;;;;;;10.02;63.63;103093.88;4776077;29;123954;-71
2023/12/18 09:19:39;;;;;;;21.75;8.45;;;;;;;10.02;63.54;103099.16;4760068;29;119380;-71
2023/12/18 09:22:06;;;;;;;26.33;9.38;;;;;;;10.03;63.91;103093.00;4771569;29;118894;-71
2023/12/18 09:24:33;;;;;;;21.40;9.20;;;;;;;10.05;63.67;103101.78;4771270;29;124036;-71
2023/12/18 09:27:01;;;;;;;27.85;9.68;;;;;;;10.07;63.86;103100.00;4769355;29;124499;-71
2023/12/18 09:29:28;;;;;;;25.17;9.55;;;;;;;10.10;63.73;103100.00;4760269;29;118559;-71
2023/12/18 09:31:55;;;;;;;23.63;8.85;;;;;;;10.11;63.68;103107.03;4779179;29;118672;-71
2023/12/18 09:34:22;;;;;;;22.85;8.63;;;;;;;10.11;63.72;103107.94;4761087;29;123032;-71
2023/12/18 09:36:50;;;;;;;23.42;8.57;;;;;;;10.12;63.65;103116.75;4760964;29;123477;-71
2023/12/18 09:39:17;;;;;;;23.27;8.85;;;;;;;10.13;63.67;103115.84;4763284;29;120669;-71
2023/12/18 09:41:44;;;;;;;23.48;9.25;;;;;;;10.13;63.91;103115.84;4768974;29;120593;-71
2023/12/18 09:44:11;;;;;;;24.83;8.70;;;;;;;10.13;63.75;103114.09;4767684;29;124316;-71
2023/12/18 09:46:39;;;;;;;23.23;8.30;;;;;;;10.16;63.75;103110.56;4762751;29;123987;-71
2023/12/18 09:49:06;;;;;;;21.65;8.55;;;;;;;10.18;63.64;103107.91;4774525;29;119289;-71
2023/12/18 09:51:36;;;;;;;24.10;8.48;;;;;;;10.19;63.69;103104.34;4773467;29;121183;-71
2023/12/18 09:54:05;;;;;;;18.98;7.88;;;;;;;10.21;63.80;103108.75;4761654;29;123850;-71
2023/12/18 09:56:32;;;;;;;19.70;8.10;;;;;;;10.23;63.93;103101.69;4774644;29;125023;-71
2023/12/18 09:59:02;;;;;;;22.70;8.13;;;;;;;10.26;63.83;103096.34;4772985;29;119696;-71
2023/12/18 10:01:29;;;;;;;22.00;8.57;;;;;;;10.27;63.62;103084.88;4750788;29;118289;-70
2023/12/18 10:03:56;;;;;;;20.20;8.25;;;;;;;10.28;63.84;103088.38;4777024;29;123052;-71
2023/12/18 10:06:24;;;;;;;19.67;8.02;;;;;;;10.30;63.75;103086.59;4779393;29;123776;-71
2023/12/18 10:08:51;;;;;;;22.23;8.77;;;;;;;10.31;63.88;103083.97;4762412;29;119273;-71
2023/12/18 10:11:25;;;;;;;22.42;8.40;;;;;;;10.33;63.72;103082.19;4763052;29;118699;-71
2023/12/18 10:13:53;;;;;;;23.05;8.25;;;;;;;10.40;63.85;103082.16;4777735;29;123842;-71
2023/12/18 10:16:21;;;;;;;17.48;7.82;;;;;;;10.44;63.76;103073.31;4763574;29;123996;-71
2023/12/18 10:18:49;;;;;;;21.48;7.95;;;;;;;10.46;63.85;103071.50;4774608;29;119457;-71
2023/12/18 10:21:23;;;;;;;23.35;8.30;;;;;;;10.48;63.83;103069.72;4764237;29;118802;-71
2023/12/18 10:23:52;;;;;;;19.65;7.85;;;;;;;10.50;63.73;103057.34;4764538;29;124163;-71
2023/12/18 10:26:19;;;;;;;21.23;8.23;;;;;;;10.54;63.76;103052.91;4771911;29;124129;-71
2023/12/18 10:28:50;;;;;;;26.52;8.48;;;;;;;10.55;63.69;103058.19;4766054;29;120295;-71
2023/12/18 10:31:18;;;;;;;17.38;8.40;;;;;;;10.56;63.80;103057.28;4768044;29;120282;-71
2023/12/18 10:33:45;;;;;;;23.85;8.70;;;;;;;10.58;63.83;103060.78;4763969;29;124443;-71
2023/12/18 10:36:16;;;;;;;23.08;8.35;;;;;;;10.59;63.51;103051.97;4761060;29;124202;-71
2023/12/18 10:38:52;;;;;;;26.35;8.82;;;;;;;10.59;63.79;103057.25;4770524;29;119199;-71
2023/12/18 10:41:21;;;;;;;20.70;9.02;;;;;;;10.62;63.61;103059.84;4745183;29;118795;-71
2023/12/18 10:43:49;;;;;;;19.60;7.75;;;;;;;10.64;63.89;103051.91;4730314;29;123375;-71
2023/12/18 10:46:17;;;;;;;21.35;7.95;;;;;;;10.67;63.69;103055.41;4773878;29;124274;-71
2023/12/18 10:48:49;;;;;;;21.55;8.38;;;;;;;10.71;63.94;103050.94;4762264;29;119572;-71
2023/12/18 10:51:20;;;;;;;23.55;8.70;;;;;;;10.75;63.70;103043.84;4756642;29;119059;-71
2023/12/18 10:53:48;;;;;;;20.35;8.23;;;;;;;10.76;63.68;103037.66;4768470;29;124970;-71
2023/12/18 10:56:19;;;;;;;19.98;7.70;;;;;;;10.77;63.54;103036.75;4776760;29;123551;-71
2023/12/18 10:58:49;;;;;;;17.45;8.32;;;;;;;10.78;63.66;103035.88;4769217;29;118315;-71
2023/12/18 11:01:17;;;;;;;19.83;8.73;;;;;;;10.77;63.62;103034.09;4761139;29;118086;-71
2023/12/18 11:03:45;;;;;;;24.63;9.63;;;;;;;10.78;63.53;103038.53;4768083;29;124832;-71
2023/12/18 11:06:13;;;;;;;22.67;8.52;;;;;;;10.78;63.43;103030.56;4773221;29;124921;-71
2023/12/18 11:08:42;;;;;;;19.65;8.50;;;;;;;10.78;63.44;103025.28;4766174;29;120113;-71
2023/12/18 11:11:11;;;;;;;18.58;8.32;;;;;;;10.78;63.68;103025.28;4770616;29;119181;-71
2023/12/18 11:14:07;;;;;;;25.73;9.65;;;;;;;10.74;63.33;103018.22;4768240;29;122100;-71